PST,Max TemperatureF,Mean TemperatureF,Min TemperatureF,Max Dew PointF,MeanDew PointF,Min DewpointF,Max Humidity, Mean Humidity, Min Humidity, Max Sea Level PressureIn, Mean Sea Level PressureIn, Min Sea Level PressureIn, Max VisibilityMiles, Mean VisibilityMiles, Min VisibilityMiles, Max Wind SpeedMPH, Mean Wind SpeedMPH, Max Gust SpeedMPH,PrecipitationIn, CloudCover, Events, WindDirDegrees
2012-11-1,54,42,30,40,35,29,100,78,45,30.09,29.99,29.86,10,10,10,15,4,20,T,4,Rain,243
2012-11-2,53,41,28,44,35,28,100,82,46,30.15,30.09,30.04,10,10,6,7,1,9,0.03,5,Fog,22
2012-11-3,61,50,38,42,40,37,100,77,42,30.28,30.17,30.09,10,9,4,12,2,15,0.00,5,,299
2012-11-4,66,48,30,45,37,30,100,85,48,30.44,30.37,30.28,10,8,1,7,1,10,0.00,2,Fog,135
2012-11-5,68,51,33,47,39,34,100,93,48,30.44,30.38,30.27,10,3,0,7,1,8,0.00,4,Fog-Snow,360
2012-11-6,68,49,30,45,36,30,100,88,35,30.28,30.21,30.08,10,4,0,9,1,13,0.00,1,Fog,329
2012-11-7,59,45,30,44,34,28,100,75,35,30.09,29.98,29.79,10,9,6,18,5,21,0.00,3,Fog,315
2012-11-8,40,34,28,32,28,23,92,81,54,29.80,29.72,29.67,10,7,0,24,4,29,T,7,Fog-Snow,280
2012-11-9,36,27,17,27,23,16,96,83,61,29.87,29.84,29.75,10,9,2,15,6,20,T,5,Fog-Snow,268
2012-11-10,37,26,15,27,21,13,92,82,47,30.25,29.97,29.81,10,7,1,20,4,25,T,5,Snow,332
2012-11-11,37,26,14,27,21,13,92,75,52,30.39,30.33,30.23,10,9,7,12,4,14,T,5,Snow,149
2012-11-12,49,40,31,34,31,26,100,82,53,30.35,30.30,30.24,10,8,1,13,3,15,0.01,7,Rain-Snow,172
2012-11-13,49,41,32,39,35,29,92,82,61,30.28,30.20,30.14,10,9,7,13,3,16,T,7,Rain,27
2012-11-14,48,37,25,39,34,25,100,94,71,30.25,30.20,30.16,10,3,0,9,3,12,0.00,5,Fog,2
2012-11-15,44,33,21,38,28,19,100,94,70,30.18,30.11,30.01,10,4,0,9,1,9,0.00,4,Fog,77
2012-11-16,50,40,30,37,33,27,96,75,50,30.01,29.94,29.84,10,9,4,25,9,30,T,5,Rain,185
2012-11-17,49,39,29,43,36,26,93,85,71,29.91,29.75,29.60,10,9,2,31,12,38,0.26,6,Rain,204
2012-11-18,39,33,26,32,28,24,100,81,64,30.01,29.98,29.92,10,9,7,25,9,35,0.00,6,Fog,176
2012-11-19,49,44,38,37,33,30,76,68,60,30.01,29.94,29.87,10,10,7,39,24,49,0.00,7,,186
2012-11-20,52,46,40,43,39,34,93,76,60,29.88,29.80,29.69,10,9,6,31,16,45,0.15,7,Rain,223
2012-11-21,44,35,25,37,31,23,92,76,49,30.30,30.02,29.75,10,10,6,32,11,39,0.10,6,Rain,281
2012-11-22,45,33,20,31,26,19,92,84,58,30.41,30.36,30.31,10,9,2,9,2,10,0.00,3,,7
2012-11-23,48,36,24,36,29,21,100,91,61,30.42,30.34,30.28,10,4,0,5,0,7,0.00,5,Fog,45
2012-11-24,56,41,25,43,34,24,100,85,54,30.32,30.22,30.07,10,7,0,13,4,16,0.00,6,Fog,218
2012-11-25,53,43,32,41,36,30,100,82,46,30.09,30.06,30.01,10,10,7,13,4,15,0.00,3,,348
2012-11-26,41,33,24,34,30,23,100,96,79,30.16,30.10,30.06,10,4,0,14,5,18,0.00,5,Fog,354
2012-11-27,48,38,27,36,30,27,100,86,46,30.17,30.09,29.97,10,4,0,13,6,15,0.00,7,Fog,356
2012-11-28,50,43,35,39,34,28,89,71,50,29.96,29.82,29.75,10,10,7,28,13,35,0.01,5,Rain,171
2012-11-29,47,44,40,43,36,30,92,73,62,29.84,29.71,29.58,10,9,4,39,23,51,0.41,6,Rain,179
2012-11-30,51,45,38,43,38,32,100,80,56,29.70,29.62,29.55,10,9,3,30,11,40,0.46,7,Rain,192